createdAt,value
2022-10-05T00:00:19.381Z,17.69
2022-10-05T00:02:47.573Z,17.28
2022-10-05T00:05:22.592Z,17.73
2022-10-05T00:07:50.392Z,17.02
2022-10-05T00:10:19.431Z,17.29
2022-10-05T00:12:47.705Z,17.47
2022-10-05T00:15:16.822Z,17.14
2022-10-05T00:17:47.914Z,17.68
2022-10-05T00:20:21.483Z,17.22
2022-10-05T00:22:49.641Z,17.33
2022-10-05T00:25:19.198Z,17.46
2022-10-05T00:27:47.681Z,17.35
2022-10-05T00:30:16.730Z,17.30
2022-10-05T00:32:47.084Z,17.65
2022-10-05T00:35:15.942Z,17.29
2022-10-05T00:37:43.643Z,17.40
2022-10-05T00:40:20.045Z,17.35
2022-10-05T00:42:51.333Z,17.62
2022-10-05T00:45:24.854Z,17.59
2022-10-05T00:47:57.887Z,17.40
2022-10-05T00:50:49.166Z,17.20
2022-10-05T00:53:24.484Z,17.43
2022-10-05T00:55:58.114Z,17.29
2022-10-05T00:58:30.772Z,17.18
2022-10-05T01:01:03.948Z,17.49
2022-10-05T01:03:36.073Z,16.49
2022-10-05T01:06:09.204Z,17.71
2022-10-05T01:08:42.523Z,17.12
2022-10-05T01:11:12.949Z,17.72
2022-10-05T01:13:48.328Z,17.41
2022-10-05T01:16:18.028Z,16.89
2022-10-05T01:18:51.509Z,17.05
2022-10-05T01:21:20.957Z,17.53
2022-10-05T01:24:17.941Z,17.55
2022-10-05T01:27:50.091Z,17.74
2022-10-05T01:30:21.152Z,17.28
2022-10-05T01:32:51.341Z,17.41
2022-10-05T01:35:35.396Z,17.65
2022-10-05T01:38:10.791Z,17.58
2022-10-05T01:40:41.057Z,17.53
2022-10-05T01:43:12.934Z,17.44
2022-10-05T01:45:49.303Z,17.26
2022-10-05T01:48:19.764Z,17.12
2022-10-05T01:50:52.140Z,17.29
2022-10-05T01:53:24.785Z,16.94
2022-10-05T01:55:56.024Z,16.91
2022-10-05T01:58:26.312Z,16.98
2022-10-05T02:01:01.465Z,16.41
2022-10-05T02:03:31.857Z,17.22
2022-10-05T02:06:00.727Z,17.25
2022-10-05T02:08:32.228Z,17.27
2022-10-05T02:14:50.864Z,16.65
2022-10-05T02:17:22.434Z,16.65
2022-10-05T02:19:51.556Z,17.06
2022-10-05T02:22:22.942Z,17.30
2022-10-05T02:24:54.269Z,17.31
2022-10-05T02:27:38.109Z,15.57
2022-10-05T02:30:11.677Z,15.94
2022-10-05T02:32:52.122Z,16.87
2022-10-05T02:35:20.776Z,16.86
2022-10-05T02:37:57.311Z,17.29
2022-10-05T02:40:30.179Z,17.34
2022-10-05T02:43:02.165Z,17.37
2022-10-05T02:45:36.725Z,15.41
2022-10-05T02:48:12.051Z,16.20
2022-10-05T02:50:44.662Z,17.39
2022-10-05T02:53:30.430Z,17.11
2022-10-05T02:56:16.788Z,17.42
2022-10-05T02:58:47.121Z,16.88
2022-10-05T03:01:18.238Z,16.72
2022-10-05T03:03:50.509Z,16.98
2022-10-05T03:06:21.097Z,16.87
2022-10-05T03:08:52.230Z,17.33
2022-10-05T03:11:23.960Z,17.04
2022-10-05T03:13:54.199Z,17.16
2022-10-05T03:16:31.245Z,17.30
2022-10-05T03:19:06.421Z,17.31
2022-10-05T03:21:47.896Z,16.93
2022-10-05T03:24:25.947Z,17.30
2022-10-05T03:26:55.815Z,17.38
2022-10-05T03:29:28.424Z,15.50
2022-10-05T03:31:59.552Z,17.27
2022-10-05T03:34:31.141Z,17.16
2022-10-05T03:37:03.178Z,17.02
2022-10-05T03:39:33.118Z,17.10
2022-10-05T03:42:05.209Z,16.79
2022-10-05T03:44:45.778Z,17.28
2022-10-05T03:47:30.514Z,15.01
2022-10-05T03:50:31.843Z,17.26
2022-10-05T03:53:01.967Z,17.21
2022-10-05T03:55:34.210Z,16.89
2022-10-05T03:58:07.765Z,16.69
2022-10-05T04:00:36.015Z,16.72
2022-10-05T04:03:06.751Z,16.89
2022-10-05T04:05:38.111Z,17.07
2022-10-05T04:08:07.417Z,17.08
2022-10-05T04:10:42.869Z,16.60
2022-10-05T04:13:13.412Z,17.02
2022-10-05T04:16:06.628Z,17.05
2022-10-05T04:18:35.947Z,16.98
2022-10-05T04:21:06.866Z,15.36
2022-10-05T04:23:45.785Z,16.55
2022-10-05T04:26:15.262Z,16.71
2022-10-05T04:28:47.415Z,16.75
2022-10-05T04:31:18.540Z,14.77
2022-10-05T04:33:48.247Z,16.97
2022-10-05T04:36:22.131Z,16.98
2022-10-05T04:38:55.867Z,16.09
2022-10-05T04:41:48.930Z,17.01
2022-10-05T04:44:28.113Z,16.78
2022-10-05T04:47:05.598Z,16.97
2022-10-05T04:49:54.924Z,15.55
2022-10-05T04:52:27.497Z,16.88
2022-10-05T04:55:05.897Z,16.90
2022-10-05T04:57:54.045Z,15.77
2022-10-05T05:00:24.867Z,15.16
2022-10-05T05:03:29.411Z,16.86
2022-10-05T05:06:17.183Z,17.03
2022-10-05T05:09:01.138Z,16.99
2022-10-05T05:11:30.386Z,16.21
2022-10-05T05:14:17.760Z,16.97
2022-10-05T05:16:46.163Z,16.40
2022-10-05T05:19:19.615Z,17.10
2022-10-05T05:21:51.343Z,16.96
2022-10-05T05:24:24.195Z,16.90
2022-10-05T05:27:02.512Z,16.88
2022-10-05T05:29:37.641Z,16.77
2022-10-05T05:32:09.700Z,16.02
2022-10-05T05:34:43.911Z,17.29
2022-10-05T05:37:15.635Z,16.72
2022-10-05T05:39:49.110Z,14.68
2022-10-05T05:42:23.850Z,15.00
2022-10-05T05:44:53.479Z,17.42
2022-10-05T05:47:22.689Z,16.48
2022-10-05T05:50:07.311Z,16.18
2022-10-05T05:52:40.570Z,14.90
2022-10-05T05:55:15.739Z,15.70
2022-10-05T05:57:47.844Z,16.90
2022-10-05T06:00:20.520Z,16.00
2022-10-05T06:02:52.230Z,15.98
2022-10-05T06:05:28.767Z,16.93
2022-10-05T06:07:57.059Z,16.07
2022-10-05T06:10:30.438Z,16.03
2022-10-05T06:13:01.580Z,17.19
2022-10-05T06:15:31.757Z,16.41
2022-10-05T06:18:00.717Z,17.82
2022-10-05T06:20:29.887Z,17.18
2022-10-05T06:25:51.029Z,17.35
2022-10-05T06:28:19.650Z,17.99
2022-10-05T06:30:52.688Z,17.99
2022-10-05T06:33:26.761Z,17.99
2022-10-05T06:36:01.613Z,17.80
2022-10-05T06:38:44.831Z,18.02
2022-10-05T06:41:16.766Z,17.97
2022-10-05T06:43:49.955Z,18.01
2022-10-05T06:46:27.166Z,18.15
2022-10-05T06:49:03.546Z,18.17
2022-10-05T06:51:36.665Z,18.24
2022-10-05T06:54:08.295Z,18.27
2022-10-05T06:56:40.869Z,18.26
2022-10-05T06:59:10.919Z,18.09
2022-10-05T07:01:46.073Z,18.14
2022-10-05T07:04:35.963Z,18.30
2022-10-05T07:07:05.999Z,18.20
2022-10-05T07:09:39.543Z,18.14
2022-10-05T07:12:23.892Z,18.35
2022-10-05T07:15:14.102Z,18.64
2022-10-05T07:17:46.024Z,18.68
2022-10-05T07:20:16.985Z,18.30
2022-10-05T07:23:14.960Z,18.81
2022-10-05T07:25:44.075Z,18.54
2022-10-05T07:28:15.063Z,18.38
2022-10-05T07:30:45.300Z,18.70
2022-10-05T07:33:14.437Z,18.93
2022-10-05T07:36:04.125Z,18.77
2022-10-05T07:38:33.742Z,19.01
2022-10-05T07:41:07.520Z,18.83
2022-10-05T07:44:02.333Z,19.15
2022-10-05T07:46:35.539Z,19.10
2022-10-05T07:49:04.686Z,18.72
2022-10-05T07:51:36.097Z,19.13
2022-10-05T07:54:20.062Z,19.23
2022-10-05T07:56:50.397Z,19.16
2022-10-05T07:59:24.830Z,19.30
2022-10-05T08:01:55.394Z,19.31
2022-10-05T08:04:25.217Z,19.39
2022-10-05T08:06:54.121Z,19.41
2022-10-05T08:09:30.347Z,19.28
2022-10-05T08:12:03.386Z,19.45
2022-10-05T08:14:34.784Z,19.31
2022-10-05T08:17:03.978Z,19.59
2022-10-05T08:19:34.993Z,19.60
2022-10-05T08:22:04.969Z,19.63
2022-10-05T08:24:39.852Z,19.35
2022-10-05T08:27:10.555Z,19.13
2022-10-05T08:29:42.220Z,19.66
2022-10-05T08:32:13.734Z,19.45
2022-10-05T08:34:46.727Z,18.25
2022-10-05T08:37:29.136Z,19.85
2022-10-05T08:40:04.121Z,19.39
2022-10-05T08:43:05.023Z,20.00
2022-10-05T08:46:19.374Z,20.15
2022-10-05T08:49:15.962Z,20.25
2022-10-05T08:52:04.881Z,20.28
2022-10-05T08:54:48.444Z,20.18
2022-10-05T08:57:41.801Z,20.40
2022-10-05T09:00:11.389Z,20.50
2022-10-05T09:03:07.991Z,20.46
2022-10-05T09:06:16.982Z,20.56
2022-10-05T09:08:58.684Z,19.79
2022-10-05T09:11:27.723Z,20.74
2022-10-05T09:14:29.498Z,20.08
2022-10-05T09:17:11.662Z,20.38
2022-10-05T09:20:17.856Z,20.95
2022-10-05T09:23:13.313Z,20.99
2022-10-05T09:25:55.188Z,20.76
2022-10-05T09:28:35.010Z,20.22
2022-10-05T09:31:18.930Z,21.17
2022-10-05T09:34:18.718Z,20.74
2022-10-05T09:37:23.078Z,21.26
2022-10-05T09:40:18.516Z,21.16
2022-10-05T09:43:05.240Z,20.73
2022-10-05T09:46:03.858Z,21.36
2022-10-05T09:48:48.585Z,21.18
2022-10-05T09:52:07.025Z,21.43
2022-10-05T09:55:03.040Z,21.28
2022-10-05T09:57:59.288Z,21.55
2022-10-05T10:00:31.834Z,21.58
2022-10-05T10:03:15.964Z,21.16
2022-10-05T10:06:05.083Z,21.70
2022-10-05T10:08:37.657Z,21.26
2022-10-05T10:11:42.373Z,21.96
2022-10-05T10:14:49.907Z,21.27
2022-10-05T10:17:30.450Z,21.86
2022-10-05T10:20:10.245Z,21.88
2022-10-05T10:23:12.529Z,21.90
2022-10-05T10:57:04.337Z,26.16
2022-10-05T10:59:57.558Z,26.93
2022-10-05T11:02:37.256Z,28.05
2022-10-05T11:05:09.465Z,28.59
2022-10-05T11:08:02.996Z,29.80
2022-10-05T11:10:52.550Z,29.09
2022-10-05T11:13:40.024Z,29.68
2022-10-05T11:16:32.231Z,31.29
2022-10-05T11:19:20.262Z,32.77
2022-10-05T11:21:55.415Z,33.84
2022-10-05T11:24:44.870Z,35.67
2022-10-05T11:27:45.727Z,35.71
2022-10-05T11:30:22.969Z,35.06
2022-10-05T11:33:14.482Z,35.66
2022-10-05T11:36:30.156Z,37.04
2022-10-05T11:39:18.177Z,36.23
2022-10-05T11:42:08.749Z,37.68
2022-10-05T11:45:13.213Z,39.01
2022-10-05T11:47:50.213Z,40.83
2022-10-05T11:50:20.627Z,41.54
2022-10-05T11:52:49.078Z,42.18
2022-10-05T11:55:22.798Z,41.06
2022-10-05T11:57:52.175Z,40.68
2022-10-05T12:00:21.119Z,39.98
2022-10-05T12:03:14.134Z,39.20
2022-10-05T12:05:47.593Z,37.84
2022-10-05T12:08:22.216Z,37.13
2022-10-05T12:10:53.820Z,35.78
2022-10-05T12:13:26.796Z,33.97
2022-10-05T12:15:55.932Z,32.61
2022-10-05T12:18:40.401Z,31.27
2022-10-05T12:21:12.134Z,29.73
2022-10-05T12:23:43.513Z,29.42
2022-10-05T12:26:12.769Z,28.80
2022-10-05T12:28:42.301Z,28.21
2022-10-05T12:31:24.069Z,27.81
2022-10-05T12:33:57.767Z,27.35
2022-10-05T12:36:46.202Z,27.08
2022-10-05T12:39:20.742Z,26.46
2022-10-05T12:41:51.778Z,26.53
2022-10-05T12:44:26.409Z,26.25
2022-10-05T12:46:57.621Z,25.87
2022-10-05T12:49:43.153Z,25.95
2022-10-05T12:52:14.827Z,25.58
2022-10-05T12:54:45.930Z,25.62
2022-10-05T12:57:16.159Z,25.38
2022-10-05T12:59:45.699Z,25.47
2022-10-05T13:02:19.762Z,25.47
2022-10-05T13:04:51.512Z,25.08
2022-10-05T13:08:07.274Z,24.81
2022-10-05T13:10:36.433Z,25.29
2022-10-05T13:13:12.268Z,25.33
2022-10-05T13:15:42.633Z,25.31
2022-10-05T13:18:18.214Z,25.31
2022-10-05T13:20:50.076Z,25.03
2022-10-05T13:23:20.877Z,25.25
2022-10-05T13:25:51.627Z,25.24
2022-10-05T13:28:22.428Z,25.23
2022-10-05T13:30:57.734Z,24.79
2022-10-05T13:33:29.701Z,24.93
2022-10-05T13:36:01.696Z,25.20
2022-10-05T13:38:36.609Z,24.79
2022-10-05T13:41:08.204Z,25.16
2022-10-05T13:43:44.846Z,25.06
2022-10-05T13:46:16.363Z,24.94
2022-10-05T13:48:53.536Z,24.56
2022-10-05T13:51:23.435Z,23.70
2022-10-05T13:53:55.992Z,24.51
2022-10-05T13:56:25.873Z,24.39
2022-10-05T13:58:56.955Z,24.34
2022-10-05T14:01:31.649Z,23.71
2022-10-05T14:04:07.071Z,24.55
2022-10-05T14:06:37.763Z,24.09
2022-10-05T14:09:05.463Z,23.43
2022-10-05T14:11:34.843Z,23.27
2022-10-05T14:14:05.319Z,24.59
2022-10-05T14:16:33.754Z,22.72
2022-10-05T14:19:18.845Z,22.87
2022-10-05T14:21:50.727Z,22.98
2022-10-05T14:24:32.269Z,23.67
2022-10-05T14:27:19.231Z,23.20
2022-10-05T14:29:49.085Z,23.07
2022-10-05T14:32:18.759Z,23.55
2022-10-05T14:34:47.269Z,24.46
2022-10-05T14:37:20.960Z,23.58
2022-10-05T14:39:51.862Z,24.37
2022-10-05T14:42:20.641Z,22.92
2022-10-05T14:44:59.838Z,23.71
2022-10-05T14:47:30.217Z,22.46
2022-10-05T14:50:16.154Z,21.75
2022-10-05T14:52:51.782Z,23.00
2022-10-05T14:55:45.258Z,24.00
2022-10-05T14:58:38.806Z,24.19
2022-10-05T15:01:13.616Z,23.55
2022-10-05T15:03:47.233Z,23.36
2022-10-05T15:06:19.956Z,21.45
2022-10-05T15:09:00.654Z,22.75
2022-10-05T15:11:34.399Z,22.34
2022-10-05T15:14:04.818Z,21.63
2022-10-05T15:16:33.293Z,22.17
2022-10-05T15:19:04.804Z,23.78
2022-10-05T15:21:40.523Z,22.00
2022-10-05T15:24:13.244Z,22.01
2022-10-05T15:26:47.425Z,21.95
2022-10-05T15:29:49.832Z,23.78
2022-10-05T15:32:25.287Z,22.91
2022-10-05T15:35:01.215Z,23.71
2022-10-05T15:37:34.095Z,23.69
2022-10-05T15:40:04.882Z,23.37
2022-10-05T15:42:35.021Z,21.69
2022-10-05T15:45:05.361Z,21.25
2022-10-05T15:47:43.900Z,23.63
2022-10-05T15:50:16.154Z,23.25
2022-10-05T15:52:45.700Z,22.30
2022-10-05T15:55:26.413Z,21.48
2022-10-05T15:57:59.331Z,23.57
2022-10-05T16:00:27.326Z,22.18
2022-10-05T16:02:59.304Z,23.09
2022-10-05T16:05:57.789Z,22.72
2022-10-05T16:08:54.139Z,23.54
2022-10-05T16:11:51.699Z,23.25
2022-10-05T16:14:39.429Z,23.50
2022-10-05T16:17:13.605Z,22.40
2022-10-05T16:19:46.123Z,21.87
2022-10-05T16:22:18.254Z,22.81
2022-10-05T16:24:55.622Z,20.53
2022-10-05T16:27:29.883Z,22.34
2022-10-05T16:30:00.216Z,23.08
2022-10-05T16:32:30.261Z,22.15
2022-10-05T16:35:03.760Z,22.70
2022-10-05T16:37:35.960Z,23.16
2022-10-05T16:40:04.577Z,21.89
2022-10-05T16:42:57.959Z,22.10
2022-10-05T16:45:31.068Z,21.29
2022-10-05T16:48:03.127Z,22.61
2022-10-05T16:50:34.787Z,23.45
2022-10-05T16:53:13.385Z,22.69
2022-10-05T16:55:43.124Z,23.17
2022-10-05T16:58:16.001Z,23.20
2022-10-05T17:00:51.954Z,23.35
2022-10-05T17:03:30.459Z,22.65
2022-10-05T17:06:09.816Z,22.23
2022-10-05T17:09:00.944Z,22.67
2022-10-05T17:11:34.441Z,21.35
2022-10-05T17:14:21.025Z,20.76
2022-10-05T17:16:55.964Z,22.58
2022-10-05T17:19:43.659Z,23.30
2022-10-05T17:22:13.582Z,21.46
2022-10-05T17:24:51.862Z,21.93
2022-10-05T17:27:22.877Z,20.43
2022-10-05T17:29:52.722Z,22.56
2022-10-05T17:32:34.276Z,21.19
2022-10-05T17:35:18.412Z,22.53
2022-10-05T17:38:15.169Z,22.88
2022-10-05T17:40:43.331Z,20.84
2022-10-05T17:43:25.301Z,20.60
2022-10-05T17:45:56.736Z,22.50
2022-10-05T17:48:38.131Z,21.97
2022-10-05T17:51:40.433Z,19.61
2022-10-05T17:54:37.127Z,21.30
2022-10-05T17:57:20.818Z,21.39
2022-10-05T17:59:58.186Z,20.11
2022-10-05T18:02:42.897Z,21.89
2022-10-05T18:05:29.002Z,22.38
2022-10-05T18:08:21.554Z,22.48
2022-10-05T18:11:08.323Z,20.50
2022-10-05T18:13:36.714Z,21.52
2022-10-05T18:16:04.758Z,21.11
2022-10-05T18:18:55.969Z,21.14
2022-10-05T18:21:35.889Z,21.47
2022-10-05T18:24:36.503Z,22.49
2022-10-05T18:27:31.932Z,22.45
2022-10-05T18:30:15.045Z,19.52
2022-10-05T18:33:21.107Z,20.69
2022-10-05T18:35:59.790Z,21.74
2022-10-05T18:38:35.738Z,21.59
2022-10-05T18:41:06.423Z,19.12
2022-10-05T18:43:37.143Z,20.47
2022-10-05T18:46:15.456Z,22.44
2022-10-05T18:48:48.352Z,21.60
2022-10-05T18:51:21.032Z,21.50
2022-10-05T18:54:00.371Z,20.54
2022-10-05T18:56:31.211Z,21.47
2022-10-05T18:59:06.343Z,19.60
2022-10-05T19:01:52.278Z,22.05
2022-10-05T19:04:24.778Z,22.53
2022-10-05T19:06:59.614Z,21.83
2022-10-05T19:09:39.704Z,19.45
2022-10-05T19:12:49.633Z,22.59
2022-10-05T19:15:44.218Z,21.99
2022-10-05T19:18:33.301Z,22.57
2022-10-05T19:21:05.443Z,21.30
2022-10-05T19:23:44.663Z,21.96
2022-10-05T19:26:15.611Z,21.58
2022-10-05T19:28:50.388Z,20.63
2022-10-05T19:31:27.985Z,20.70
2022-10-05T19:34:03.003Z,21.90
2022-10-05T19:36:36.569Z,21.49
2022-10-05T19:39:09.024Z,20.74
2022-10-05T19:41:52.098Z,22.54
2022-10-05T19:44:25.153Z,20.72
2022-10-05T19:47:00.588Z,21.83
2022-10-05T19:49:45.259Z,20.15
2022-10-05T19:55:13.034Z,21.72
2022-10-05T22:13:26.777Z,22.47
2022-10-05T22:45:18.096Z,18.53
2022-10-05T22:48:19.887Z,19.81
2022-10-05T22:51:41.045Z,19.74
2022-10-05T22:54:57.684Z,18.08
2022-10-05T22:57:38.547Z,20.27
2022-10-05T23:00:07.920Z,19.92
2022-10-05T23:02:37.850Z,19.73
2022-10-05T23:05:06.820Z,19.37
2022-10-05T23:11:20.855Z,19.33
2022-10-05T23:17:39.857Z,19.70
2022-10-05T23:21:24.527Z,20.49
2022-10-05T23:27:55.119Z,19.83
2022-10-05T23:31:08.115Z,18.52
2022-10-05T23:34:03.885Z,18.03
2022-10-05T23:41:29.047Z,19.94
2022-10-05T23:44:38.093Z,17.38
2022-10-05T23:54:20.070Z,17.65
